createdAt,value
2019-05-07T00:00:48.481Z,9.03
2019-05-07T00:03:17.671Z,8.10
2019-05-07T00:05:46.806Z,8.60
2019-05-07T00:08:15.871Z,8.10
2019-05-07T00:10:45.055Z,8.30
2019-05-07T00:13:14.147Z,8.57
2019-05-07T00:15:43.102Z,8.43
2019-05-07T00:18:12.778Z,8.30
2019-05-07T00:20:42.453Z,8.47
2019-05-07T00:23:12.385Z,7.77
2019-05-07T00:25:42.197Z,7.90
2019-05-07T00:28:12.270Z,8.10
2019-05-07T00:30:42.470Z,7.93
2019-05-07T00:33:13.152Z,7.07
2019-05-07T00:35:44.256Z,6.97
2019-05-07T00:38:14.871Z,7.00
2019-05-07T00:40:45.558Z,7.63
2019-05-07T00:43:18.768Z,7.67
2019-05-07T00:45:49.472Z,7.10
2019-05-07T00:48:18.475Z,7.60
2019-05-07T00:50:48.872Z,7.00
2019-05-07T00:53:17.770Z,7.53
2019-05-07T00:55:46.884Z,7.50
2019-05-07T00:58:15.715Z,6.90
2019-05-07T01:00:45.041Z,7.80
2019-05-07T01:03:14.088Z,7.00
2019-05-07T01:05:43.537Z,7.10
2019-05-07T01:08:13.198Z,7.40
2019-05-07T01:10:42.588Z,7.73
2019-05-07T01:13:12.652Z,7.10
2019-05-07T01:15:42.948Z,7.47
2019-05-07T01:18:13.638Z,6.93
2019-05-07T01:20:44.015Z,7.83
2019-05-07T01:23:13.505Z,7.80
2019-05-07T01:25:43.023Z,7.03
2019-05-07T01:28:13.235Z,7.17
2019-05-07T01:30:43.176Z,7.87
2019-05-07T01:33:33.225Z,7.17
2019-05-07T01:36:03.996Z,7.37
2019-05-07T01:38:34.149Z,8.13
2019-05-07T01:41:03.235Z,7.73
2019-05-07T01:43:32.255Z,7.90
2019-05-07T01:46:03.208Z,7.90
2019-05-07T01:48:32.369Z,7.70
2019-05-07T01:51:03.458Z,7.70
2019-05-07T01:53:32.446Z,7.50
2019-05-07T01:56:03.309Z,7.63
2019-05-07T01:58:33.049Z,7.60
2019-05-07T02:01:02.966Z,7.57
2019-05-07T02:03:42.656Z,7.70
2019-05-07T02:06:15.643Z,7.33
2019-05-07T02:09:04.401Z,7.23
2019-05-07T02:11:47.107Z,7.33
2019-05-07T02:14:15.997Z,7.43
2019-05-07T02:16:44.895Z,7.93
2019-05-07T02:19:13.761Z,7.53
2019-05-07T02:21:42.659Z,7.90
2019-05-07T02:24:12.629Z,6.93
2019-05-07T02:26:42.741Z,7.60
2019-05-07T02:29:12.200Z,7.17
2019-05-07T02:31:44.152Z,7.67
2019-05-07T02:34:14.079Z,7.83
2019-05-07T02:36:43.567Z,7.57
2019-05-07T02:39:14.303Z,7.77
2019-05-07T02:41:44.011Z,7.67
2019-05-07T02:44:13.936Z,8.40
2019-05-07T02:47:03.734Z,7.93
2019-05-07T02:49:32.955Z,7.53
2019-05-07T02:52:13.533Z,8.10
2019-05-07T02:55:04.063Z,8.33
2019-05-07T02:57:34.046Z,7.90
2019-05-07T03:00:04.928Z,7.70
2019-05-07T03:02:34.496Z,7.63
2019-05-07T03:05:05.207Z,7.13
2019-05-07T03:07:34.038Z,8.30
2019-05-07T03:10:03.779Z,8.53
2019-05-07T03:12:33.687Z,8.67
2019-05-07T03:15:04.490Z,8.27
2019-05-07T03:17:33.581Z,8.40
2019-05-07T03:20:04.510Z,8.00
2019-05-07T03:22:33.907Z,8.20
2019-05-07T03:25:04.745Z,8.03
2019-05-07T03:27:34.341Z,8.40
2019-05-07T03:30:17.645Z,8.53
2019-05-07T03:32:57.454Z,7.77
2019-05-07T03:35:36.332Z,8.10
2019-05-07T03:38:03.540Z,8.17
2019-05-07T03:40:33.133Z,8.40
2019-05-07T03:43:05.784Z,8.23
2019-05-07T03:45:42.998Z,8.57
2019-05-07T03:48:15.544Z,8.17
2019-05-07T03:50:44.289Z,8.87
2019-05-07T03:53:14.334Z,9.13
2019-05-07T03:55:44.671Z,8.67
2019-05-07T03:58:14.773Z,7.83
2019-05-07T04:00:44.770Z,8.20
2019-05-07T04:03:18.786Z,8.53
2019-05-07T04:05:44.096Z,8.10
2019-05-07T04:08:13.274Z,8.30
2019-05-07T04:10:44.355Z,8.43
2019-05-07T04:13:13.541Z,7.63
2019-05-07T04:16:03.971Z,8.00
2019-05-07T04:18:33.203Z,7.50
2019-05-07T04:21:03.819Z,8.13
2019-05-07T04:23:34.101Z,8.20
2019-05-07T04:26:07.851Z,8.30
2019-05-07T04:28:54.599Z,7.53
2019-05-07T04:31:25.432Z,8.60
2019-05-07T04:33:55.226Z,8.00
2019-05-07T04:36:25.741Z,7.23
2019-05-07T04:38:54.401Z,7.60
2019-05-07T04:41:23.671Z,7.67
2019-05-07T04:43:54.107Z,7.60
2019-05-07T04:46:23.712Z,8.23
2019-05-07T04:48:53.045Z,8.47
2019-05-07T04:51:23.891Z,6.70
2019-05-07T04:53:54.224Z,7.30
2019-05-07T04:56:24.041Z,7.10
2019-05-07T04:58:53.272Z,6.83
2019-05-07T05:01:23.859Z,7.77
2019-05-07T05:03:54.035Z,7.43
2019-05-07T05:06:24.234Z,7.30
2019-05-07T05:08:56.090Z,7.87
2019-05-07T05:11:23.963Z,7.13
2019-05-07T05:13:53.288Z,8.30
2019-05-07T05:16:26.480Z,8.27
2019-05-07T05:18:56.323Z,7.80
2019-05-07T05:21:29.681Z,6.93
2019-05-07T05:24:09.244Z,7.67
2019-05-07T05:26:38.124Z,7.00
2019-05-07T05:29:07.112Z,6.83
2019-05-07T05:31:35.803Z,6.90
2019-05-07T05:34:04.868Z,7.00
2019-05-07T05:36:33.756Z,7.60
2019-05-07T05:39:02.649Z,7.30
2019-05-07T05:41:34.139Z,7.80
2019-05-07T05:44:04.765Z,7.23
2019-05-07T05:46:34.642Z,7.30
2019-05-07T05:49:03.532Z,7.40
2019-05-07T05:51:34.182Z,7.97
2019-05-07T05:54:07.526Z,7.73
2019-05-07T05:56:42.559Z,7.50
2019-05-07T05:59:12.604Z,7.37
2019-05-07T06:01:48.774Z,8.87
2019-05-07T06:04:22.238Z,7.80
2019-05-07T06:07:13.990Z,7.83
2019-05-07T06:09:50.055Z,7.70
2019-05-07T06:12:29.801Z,7.63
2019-05-07T06:15:05.939Z,8.27
2019-05-07T06:17:45.690Z,7.77
2019-05-07T06:20:25.463Z,8.80
2019-05-07T06:23:14.609Z,7.90
2019-05-07T06:25:45.014Z,7.77
2019-05-07T06:28:13.808Z,8.43
2019-05-07T06:30:42.790Z,7.70
2019-05-07T06:33:12.470Z,6.80
2019-05-07T06:35:42.892Z,7.47
2019-05-07T06:38:12.938Z,6.97
2019-05-07T06:40:43.403Z,7.57
2019-05-07T06:43:16.741Z,7.70
2019-05-07T06:45:59.258Z,7.20
2019-05-07T06:48:39.181Z,6.87
2019-05-07T06:50:58.996Z,7.10
2019-05-07T06:53:32.978Z,7.30
2019-05-07T06:56:02.927Z,4.43
2019-05-07T06:58:33.947Z,4.40
2019-05-07T07:01:12.088Z,4.23
2019-05-07T07:03:42.470Z,5.17
2019-05-07T07:06:13.009Z,4.53
2019-05-07T07:08:47.006Z,4.60
2019-05-07T07:11:32.715Z,4.47
2019-05-07T07:14:02.629Z,4.43
2019-05-07T07:16:32.611Z,5.40
2019-05-07T07:19:03.362Z,5.27
2019-05-07T07:21:32.788Z,5.03
2019-05-07T07:24:03.045Z,5.00
2019-05-07T07:26:34.159Z,5.57
2019-05-07T07:29:03.203Z,5.13
2019-05-07T07:31:39.369Z,4.90
2019-05-07T07:34:08.351Z,5.07
2019-05-07T07:36:38.783Z,5.43
2019-05-07T07:39:08.902Z,5.90
2019-05-07T07:41:55.802Z,5.13
2019-05-07T07:44:24.767Z,5.40
2019-05-07T07:46:53.650Z,6.47
2019-05-07T07:49:22.591Z,5.57
2019-05-07T07:51:52.568Z,5.50
2019-05-07T07:54:22.735Z,5.60
2019-05-07T07:56:56.805Z,5.90
2019-05-07T07:59:33.502Z,5.70
2019-05-07T08:02:06.983Z,6.30
2019-05-07T08:04:36.045Z,6.77
2019-05-07T08:07:04.995Z,6.23
2019-05-07T08:09:35.836Z,6.10
2019-05-07T08:12:06.032Z,6.40
2019-05-07T08:14:35.006Z,5.53
2019-05-07T08:17:05.565Z,6.17
2019-05-07T08:19:34.873Z,6.40
2019-05-07T08:22:04.192Z,6.70
2019-05-07T08:24:33.527Z,6.00
2019-05-07T08:27:02.658Z,5.80
2019-05-07T08:29:32.567Z,5.90
2019-05-07T08:32:04.143Z,5.00
2019-05-07T08:34:46.179Z,6.07
2019-05-07T08:37:15.035Z,6.23
2019-05-07T08:39:44.058Z,5.97
2019-05-07T08:42:13.107Z,6.77
2019-05-07T08:44:49.336Z,8.00
2019-05-07T08:47:36.265Z,6.77
2019-05-07T08:50:07.250Z,6.40
2019-05-07T08:52:36.357Z,6.63
2019-05-07T08:55:07.801Z,6.07
2019-05-07T08:57:36.805Z,7.40
2019-05-07T09:00:07.485Z,6.37
2019-05-07T09:02:36.399Z,6.63
2019-05-07T09:05:09.268Z,6.00
2019-05-07T09:07:38.497Z,6.03
2019-05-07T09:10:07.941Z,5.90
2019-05-07T09:12:36.885Z,6.80
2019-05-07T09:15:07.417Z,6.30
2019-05-07T09:17:36.426Z,5.43
2019-05-07T09:20:09.197Z,5.80
2019-05-07T09:22:37.355Z,6.30
2019-05-07T09:25:08.078Z,6.80
2019-05-07T09:27:42.393Z,6.07
2019-05-07T09:30:32.479Z,5.27
2019-05-07T09:33:02.937Z,5.40
2019-05-07T09:35:49.227Z,6.17
2019-05-07T09:38:18.030Z,6.03
2019-05-07T09:40:46.936Z,6.30
2019-05-07T09:43:16.193Z,7.00
2019-05-07T09:45:45.941Z,6.67
2019-05-07T09:48:14.808Z,6.60
2019-05-07T09:50:44.385Z,5.87
2019-05-07T09:53:13.241Z,6.83
2019-05-07T09:55:42.655Z,7.40
2019-05-07T09:58:12.578Z,7.63
2019-05-07T10:00:42.451Z,6.90
2019-05-07T10:03:12.694Z,6.50
2019-05-07T10:05:42.705Z,6.83
2019-05-07T10:08:12.925Z,6.93
2019-05-07T10:10:43.482Z,5.97
2019-05-07T10:13:20.205Z,6.10
2019-05-07T10:15:49.351Z,6.87
2019-05-07T10:18:22.693Z,7.47
2019-05-07T10:20:52.163Z,6.93
2019-05-07T10:23:22.945Z,5.53
2019-05-07T10:25:53.517Z,6.93
2019-05-07T10:28:23.243Z,6.00
2019-05-07T10:30:52.393Z,5.93
2019-05-07T10:33:22.904Z,5.67
2019-05-07T10:35:52.941Z,6.10
2019-05-07T10:38:22.155Z,6.37
2019-05-07T10:40:51.352Z,6.47
2019-05-07T10:43:22.231Z,5.50
2019-05-07T10:46:10.122Z,6.13
2019-05-07T10:48:51.266Z,6.90
2019-05-07T10:51:21.798Z,5.13
2019-05-07T10:53:51.779Z,5.53
2019-05-07T10:56:22.293Z,6.13
2019-05-07T10:58:52.204Z,6.40
2019-05-07T11:01:22.788Z,6.10
2019-05-07T11:03:51.804Z,6.00
2019-05-07T11:06:22.129Z,4.37
2019-05-07T11:08:51.876Z,4.43
2019-05-07T11:11:20.937Z,4.43
2019-05-07T11:13:49.784Z,5.17
2019-05-07T11:16:22.124Z,5.70
2019-05-07T11:18:52.293Z,6.07
2019-05-07T11:21:30.274Z,5.40
2019-05-07T11:24:02.874Z,5.77
2019-05-07T11:26:32.886Z,5.87
2019-05-07T11:29:02.407Z,6.03
2019-05-07T11:31:33.049Z,5.93
2019-05-07T11:34:02.754Z,5.57
2019-05-07T11:36:32.023Z,5.23
2019-05-07T11:39:02.530Z,5.37
2019-05-07T11:41:39.099Z,6.00
2019-05-07T11:44:09.518Z,5.80
2019-05-07T11:46:44.484Z,5.20
2019-05-07T11:49:15.075Z,5.90
2019-05-07T11:51:48.275Z,5.30
2019-05-07T11:54:16.945Z,5.83
2019-05-07T11:56:45.937Z,6.17
2019-05-07T11:59:14.862Z,5.90
2019-05-07T12:01:47.756Z,5.97
2019-05-07T12:04:16.495Z,5.47
2019-05-07T12:06:45.193Z,6.10
2019-05-07T12:09:13.965Z,5.20
2019-05-07T12:11:42.858Z,4.47
2019-05-07T12:14:12.354Z,4.87
2019-05-07T12:16:42.616Z,5.30
2019-05-07T12:19:13.017Z,5.83
2019-05-07T12:21:42.269Z,6.37
2019-05-07T12:24:12.901Z,6.73
2019-05-07T12:26:43.788Z,5.20
2019-05-07T12:29:12.728Z,5.40
2019-05-07T12:31:49.365Z,5.10
2019-05-07T12:34:19.796Z,5.90
2019-05-07T12:36:48.640Z,5.60
2019-05-07T12:39:17.525Z,6.13
2019-05-07T12:41:46.819Z,5.80
2019-05-07T12:44:15.872Z,5.43
2019-05-07T12:46:44.902Z,7.50
2019-05-07T12:49:13.913Z,5.47
2019-05-07T12:52:02.286Z,6.50
2019-05-07T12:54:42.164Z,6.50
2019-05-07T12:57:11.789Z,6.33
2019-05-07T12:59:42.524Z,5.93
2019-05-07T13:02:26.727Z,6.70
2019-05-07T13:04:43.332Z,7.37
2019-05-07T13:07:13.821Z,6.40
2019-05-07T13:09:42.824Z,7.00
2019-05-07T13:12:11.886Z,6.43
2019-05-07T13:14:40.550Z,6.40
2019-05-07T13:17:09.460Z,6.37
2019-05-07T13:19:39.258Z,6.20
2019-05-07T13:22:08.163Z,6.13
2019-05-07T13:24:37.264Z,5.87
2019-05-07T13:27:06.126Z,7.13
2019-05-07T13:29:35.035Z,7.17
2019-05-07T13:32:04.556Z,7.90
2019-05-07T13:34:34.302Z,7.57
2019-05-07T13:37:05.182Z,7.33
2019-05-07T13:39:35.936Z,6.53
2019-05-07T13:42:12.872Z,6.20
2019-05-07T13:44:43.518Z,6.57
2019-05-07T13:47:26.532Z,6.63
2019-05-07T13:49:55.830Z,6.00
2019-05-07T13:52:25.439Z,7.23
2019-05-07T13:54:54.836Z,6.10
2019-05-07T13:57:23.827Z,6.30
2019-05-07T13:59:53.627Z,7.30
2019-05-07T14:02:24.066Z,7.27
2019-05-07T14:04:53.351Z,6.97
2019-05-07T14:07:22.966Z,7.00
2019-05-07T14:09:52.790Z,6.93
2019-05-07T14:12:22.919Z,7.20
2019-05-07T14:14:53.132Z,7.23
2019-05-07T14:17:22.230Z,7.37
2019-05-07T14:19:52.980Z,7.77
2019-05-07T14:22:22.609Z,7.27
2019-05-07T14:24:53.063Z,8.17
2019-05-07T14:27:22.260Z,7.47
2019-05-07T14:29:52.063Z,7.90
2019-05-07T14:32:23.322Z,8.93
2019-05-07T14:35:06.042Z,8.17
2019-05-07T14:37:36.567Z,8.30
2019-05-07T14:40:07.515Z,9.10
2019-05-07T14:42:38.888Z,9.70
2019-05-07T14:45:08.126Z,9.83
2019-05-07T14:47:36.977Z,9.23
2019-05-07T14:50:07.144Z,10.67
2019-05-07T14:52:36.378Z,10.53
2019-05-07T14:55:06.366Z,11.20
2019-05-07T14:57:36.564Z,9.43
2019-05-07T15:00:07.523Z,9.70
2019-05-07T15:02:36.504Z,8.97
2019-05-07T15:05:07.338Z,11.00
2019-05-07T15:07:36.315Z,10.57
2019-05-07T15:10:06.846Z,10.90
2019-05-07T15:12:35.748Z,10.57
2019-05-07T15:15:06.204Z,11.00
2019-05-07T15:17:54.962Z,10.33
2019-05-07T15:20:23.900Z,10.67
2019-05-07T15:23:03.108Z,11.80
2019-05-07T15:25:32.429Z,12.17
2019-05-07T15:28:01.816Z,10.87
2019-05-07T15:30:32.584Z,10.73
2019-05-07T15:33:02.298Z,9.63
2019-05-07T15:35:32.039Z,10.40
2019-05-07T15:38:02.478Z,10.20
2019-05-07T15:40:33.025Z,10.33
2019-05-07T15:43:02.320Z,11.23
2019-05-07T15:45:31.167Z,12.07
2019-05-07T15:48:02.000Z,12.07
2019-05-07T15:50:32.262Z,12.50
2019-05-07T15:53:08.639Z,10.87
2019-05-07T15:55:37.415Z,12.60
2019-05-07T15:58:06.299Z,12.57
2019-05-07T16:00:36.485Z,13.10
2019-05-07T16:03:07.569Z,12.37
2019-05-07T16:05:37.243Z,13.23
2019-05-07T16:08:08.352Z,12.17
2019-05-07T16:10:37.224Z,10.63
2019-05-07T16:13:06.838Z,11.20
2019-05-07T16:15:35.803Z,12.13
2019-05-07T16:18:06.435Z,12.77
2019-05-07T16:20:35.297Z,14.97
2019-05-07T16:23:14.401Z,13.43
2019-05-07T16:25:34.825Z,12.97
2019-05-07T16:28:04.893Z,12.93
2019-05-07T16:30:34.571Z,13.27
2019-05-07T16:33:03.357Z,11.87
2019-05-07T16:35:32.290Z,10.67
2019-05-07T16:38:02.001Z,10.40
2019-05-07T16:40:32.303Z,10.43
2019-05-07T16:43:02.813Z,10.37
2019-05-07T16:45:31.883Z,10.73
2019-05-07T16:48:03.007Z,9.73
2019-05-07T16:50:32.663Z,9.80
2019-05-07T16:53:02.888Z,10.07
2019-05-07T16:55:36.774Z,9.80
2019-05-07T16:58:07.604Z,9.43
2019-05-07T17:00:42.363Z,8.77
2019-05-07T17:03:13.045Z,9.23
2019-05-07T17:05:42.847Z,8.67
2019-05-07T17:08:13.584Z,9.23
2019-05-07T17:10:42.812Z,8.97
2019-05-07T17:13:12.537Z,9.50
2019-05-07T17:15:57.999Z,9.10
2019-05-07T17:18:28.585Z,9.53
2019-05-07T17:20:58.579Z,10.47
2019-05-07T17:23:34.423Z,9.63
2019-05-07T17:25:58.424Z,9.97
2019-05-07T17:28:28.217Z,11.53
2019-05-07T17:30:57.345Z,14.77
2019-05-07T17:33:26.248Z,15.53
2019-05-07T17:35:55.235Z,13.57
2019-05-07T17:38:24.304Z,13.40
2019-05-07T17:40:53.223Z,12.83
2019-05-07T17:43:22.221Z,14.07
2019-05-07T17:45:52.290Z,17.90
2019-05-07T17:48:23.162Z,14.20
2019-05-07T17:50:53.637Z,13.53
2019-05-07T17:53:22.784Z,12.60
2019-05-07T17:55:52.949Z,15.87
2019-05-07T17:58:22.166Z,15.73
2019-05-07T18:00:53.289Z,16.77
2019-05-07T18:03:32.670Z,18.63
2019-05-07T18:06:02.514Z,19.50
2019-05-07T18:08:32.509Z,19.03
2019-05-07T18:11:02.561Z,18.50
2019-05-07T18:13:32.540Z,19.67
2019-05-07T18:16:03.204Z,19.87
2019-05-07T18:18:33.391Z,18.97
2019-05-07T18:21:05.213Z,22.40
2019-05-07T18:23:37.158Z,21.60
2019-05-07T18:26:07.618Z,30.80
2019-05-07T18:28:36.678Z,27.93
2019-05-07T18:31:05.580Z,26.97
2019-05-07T18:33:52.480Z,29.57
2019-05-07T18:36:22.673Z,35.50
2019-05-07T18:38:52.883Z,30.80
2019-05-07T18:41:22.314Z,39.47
2019-05-07T18:43:54.423Z,32.77
2019-05-07T18:46:22.278Z,31.03
2019-05-07T18:48:51.800Z,26.17
2019-05-07T18:51:20.700Z,21.57
2019-05-07T18:53:51.795Z,24.57
2019-05-07T18:56:21.889Z,25.63
2019-05-07T18:58:52.061Z,24.70
2019-05-07T19:01:22.842Z,27.20
2019-05-07T19:03:52.597Z,28.60
2019-05-07T19:06:22.324Z,27.73
2019-05-07T19:08:52.711Z,26.87
2019-05-07T19:11:22.804Z,24.87
2019-05-07T19:13:52.472Z,26.57
2019-05-07T19:16:23.043Z,26.00
2019-05-07T19:18:52.350Z,23.87
2019-05-07T19:21:22.361Z,26.10
2019-05-07T19:23:52.976Z,30.23
2019-05-07T19:26:22.178Z,28.00
2019-05-07T19:28:50.814Z,25.93
2019-05-07T19:31:21.866Z,28.90
2019-05-07T19:33:52.338Z,31.87
2019-05-07T19:36:22.358Z,35.53
2019-05-07T19:38:52.575Z,33.27
2019-05-07T19:41:21.674Z,33.97
2019-05-07T19:43:52.622Z,30.23
2019-05-07T19:46:22.853Z,31.13
2019-05-07T19:48:52.406Z,31.93
2019-05-07T19:51:21.506Z,27.87
2019-05-07T19:53:52.437Z,23.20
2019-05-07T19:56:24.749Z,24.07
2019-05-07T19:58:53.929Z,22.70
2019-05-07T20:01:27.458Z,23.40
2019-05-07T20:03:56.313Z,23.73
2019-05-07T20:06:25.217Z,23.30
2019-05-07T20:09:02.476Z,23.60
2019-05-07T20:11:26.369Z,22.53
2019-05-07T20:13:55.347Z,22.83
2019-05-07T20:16:24.108Z,24.20
2019-05-07T20:18:53.083Z,28.60
2019-05-07T20:21:22.870Z,44.97
2019-05-07T20:23:52.632Z,28.60
2019-05-07T20:26:23.181Z,25.90
2019-05-07T20:28:52.732Z,25.67
2019-05-07T20:31:22.702Z,23.70
2019-05-07T20:33:53.124Z,26.63
2019-05-07T20:36:22.238Z,27.10
2019-05-07T20:38:52.119Z,28.13
2019-05-07T20:41:23.090Z,27.67
2019-05-07T20:43:52.502Z,26.33
2019-05-07T20:46:21.512Z,26.73
2019-05-07T20:48:52.484Z,27.13
2019-05-07T20:51:23.109Z,26.77
2019-05-07T20:53:59.392Z,26.93
2019-05-07T20:56:32.845Z,30.20
2019-05-07T20:59:03.010Z,28.50
2019-05-07T21:01:32.893Z,32.60
2019-05-07T21:04:02.274Z,31.77
2019-05-07T21:06:32.310Z,29.90
2019-05-07T21:09:01.481Z,28.33
2019-05-07T21:11:32.341Z,29.30
2019-05-07T21:14:03.074Z,28.63
2019-05-07T21:16:32.906Z,29.20
2019-05-07T21:19:02.204Z,28.73
2019-05-07T21:21:32.697Z,30.60
2019-05-07T21:24:02.225Z,30.83
2019-05-07T21:26:32.740Z,30.30
2019-05-07T21:29:03.047Z,32.27
2019-05-07T21:31:32.408Z,34.27
2019-05-07T21:34:03.046Z,33.63
2019-05-07T21:36:32.499Z,38.10
2019-05-07T21:39:02.246Z,36.73
2019-05-07T21:41:33.528Z,35.77
2019-05-07T21:44:02.521Z,33.93
2019-05-07T21:46:32.975Z,36.77
2019-05-07T21:49:02.626Z,33.27
2019-05-07T21:51:32.099Z,31.77
2019-05-07T21:54:03.649Z,32.87
2019-05-07T21:56:37.030Z,34.50
2019-05-07T21:59:09.449Z,35.57
2019-05-07T22:01:43.469Z,35.53
2019-05-07T22:04:12.502Z,34.67
2019-05-07T22:06:42.838Z,35.60
2019-05-07T22:09:12.863Z,34.13
2019-05-07T22:11:42.745Z,35.47
2019-05-07T22:14:12.893Z,38.87
2019-05-07T22:16:42.401Z,41.67
2019-05-07T22:19:12.093Z,46.93
2019-05-07T22:21:43.243Z,43.17
2019-05-07T22:24:13.101Z,38.10
2019-05-07T22:26:42.367Z,36.27
2019-05-07T22:29:12.511Z,40.43
2019-05-07T22:31:46.337Z,36.77
2019-05-07T22:34:22.420Z,39.90
2019-05-07T22:36:52.105Z,39.57
2019-05-07T22:39:22.126Z,38.17
2019-05-07T22:41:51.174Z,38.83
2019-05-07T22:44:23.684Z,34.67
2019-05-07T22:46:52.598Z,35.30
2019-05-07T22:49:22.740Z,35.37
2019-05-07T22:51:54.622Z,34.43
2019-05-07T22:54:22.572Z,33.23
2019-05-07T22:56:59.173Z,35.03
2019-05-07T22:59:27.931Z,35.43
2019-05-07T23:01:56.831Z,34.87
2019-05-07T23:04:25.949Z,35.53
2019-05-07T23:06:54.701Z,35.93
2019-05-07T23:09:23.587Z,35.10
2019-05-07T23:11:54.905Z,34.10
2019-05-07T23:14:22.866Z,35.30
2019-05-07T23:16:52.651Z,40.13
2019-05-07T23:19:22.452Z,35.13
2019-05-07T23:21:52.184Z,39.23
2019-05-07T23:24:22.602Z,36.70
2019-05-07T23:26:53.602Z,38.97
2019-05-07T23:29:22.544Z,37.70
2019-05-07T23:31:52.885Z,37.47
2019-05-07T23:34:22.410Z,39.20
2019-05-07T23:36:53.448Z,42.60
2019-05-07T23:39:23.675Z,40.27
2019-05-07T23:41:54.076Z,44.70
2019-05-07T23:44:22.999Z,44.80
2019-05-07T23:46:52.146Z,45.43
2019-05-07T23:49:22.969Z,46.33
2019-05-07T23:51:53.078Z,46.27
2019-05-07T23:54:23.047Z,48.80
2019-05-07T23:57:05.119Z,59.87
2019-05-07T23:59:22.661Z,47.53
